sensor_id;sensor_type;location;lat;lon;timestamp;temperature;humidity
3752;DHT22;50827;47.014;7.652;2023-07-31T00:01:34;16.90;99.90
3752;DHT22;50827;47.014;7.652;2023-07-31T00:04:01;16.90;99.90
3752;DHT22;50827;47.014;7.652;2023-07-31T00:06:28;16.90;99.90
3752;DHT22;50827;47.014;7.652;2023-07-31T00:08:55;16.80;99.90
3752;DHT22;50827;47.014;7.652;2023-07-31T00:11:21;16.90;99.90
3752;DHT22;50827;47.014;7.652;2023-07-31T00:13:48;16.80;99.90
3752;DHT22;50827;47.014;7.652;2023-07-31T00:16:15;16.80;99.90
3752;DHT22;50827;47.014;7.652;2023-07-31T00:18:42;16.80;99.90
3752;DHT22;50827;47.014;7.652;2023-07-31T00:21:08;16.90;99.90
3752;DHT22;50827;47.014;7.652;2023-07-31T00:23:35;16.90;99.90
3752;DHT22;50827;47.014;7.652;2023-07-31T00:26:02;16.80;99.90
3752;DHT22;50827;47.014;7.652;2023-07-31T00:28:28;16.90;99.90
3752;DHT22;50827;47.014;7.652;2023-07-31T00:30:55;16.90;99.90
3752;DHT22;50827;47.014;7.652;2023-07-31T00:33:22;16.90;99.90
3752;DHT22;50827;47.014;7.652;2023-07-31T00:35:49;16.80;99.90
3752;DHT22;50827;47.014;7.652;2023-07-31T00:38:15;16.70;99.90
3752;DHT22;50827;47.014;7.652;2023-07-31T00:40:42;16.60;99.90
3752;DHT22;50827;47.014;7.652;2023-07-31T00:43:09;16.60;99.90
3752;DHT22;50827;47.014;7.652;2023-07-31T00:45:35;16.50;99.90
3752;DHT22;50827;47.014;7.652;2023-07-31T00:48:02;16.50;99.90
3752;DHT22;50827;47.014;7.652;2023-07-31T00:50:29;16.30;99.90
3752;DHT22;50827;47.014;7.652;2023-07-31T00:52:58;16.30;99.90
3752;DHT22;50827;47.014;7.652;2023-07-31T00:55:24;16.20;99.90
3752;DHT22;50827;47.014;7.652;2023-07-31T00:57:52;16.20;99.90
3752;DHT22;50827;47.014;7.652;2023-07-31T01:00:19;16.20;99.90
3752;DHT22;50827;47.014;7.652;2023-07-31T01:02:46;16.20;99.90
3752;DHT22;50827;47.014;7.652;2023-07-31T01:05:13;16.20;99.90
3752;DHT22;50827;47.014;7.652;2023-07-31T01:07:59;16.20;99.90
3752;DHT22;50827;47.014;7.652;2023-07-31T01:10:34;16.10;99.90
3752;DHT22;50827;47.014;7.652;2023-07-31T01:13:03;16.00;99.90
3752;DHT22;50827;47.014;7.652;2023-07-31T01:15:30;16.00;99.90
3752;DHT22;50827;47.014;7.652;2023-07-31T01:17:57;15.90;99.90
3752;DHT22;50827;47.014;7.652;2023-07-31T01:20:26;15.90;99.90
3752;DHT22;50827;47.014;7.652;2023-07-31T01:23:24;15.80;99.90
3752;DHT22;50827;47.014;7.652;2023-07-31T01:26:00;15.80;99.90
3752;DHT22;50827;47.014;7.652;2023-07-31T01:28:40;15.80;99.90
3752;DHT22;50827;47.014;7.652;2023-07-31T01:31:12;15.80;99.90
3752;DHT22;50827;47.014;7.652;2023-07-31T01:33:39;15.80;99.90
3752;DHT22;50827;47.014;7.652;2023-07-31T01:36:07;15.70;99.90
3752;DHT22;50827;47.014;7.652;2023-07-31T01:38:34;15.70;99.90
3752;DHT22;50827;47.014;7.652;2023-07-31T01:41:00;15.60;99.90
3752;DHT22;50827;47.014;7.652;2023-07-31T01:43:27;15.60;99.90
3752;DHT22;50827;47.014;7.652;2023-07-31T01:45:54;15.60;99.90
3752;DHT22;50827;47.014;7.652;2023-07-31T01:48:20;15.70;99.90
3752;DHT22;50827;47.014;7.652;2023-07-31T01:50:47;15.70;99.90
3752;DHT22;50827;47.014;7.652;2023-07-31T01:53:14;15.60;99.90
3752;DHT22;50827;47.014;7.652;2023-07-31T01:55:41;15.70;99.90
3752;DHT22;50827;47.014;7.652;2023-07-31T01:58:08;15.60;99.90
3752;DHT22;50827;47.014;7.652;2023-07-31T02:00:34;15.50;99.90
3752;DHT22;50827;47.014;7.652;2023-07-31T02:03:01;15.50;99.90
3752;DHT22;50827;47.014;7.652;2023-07-31T02:05:28;15.50;99.90
3752;DHT22;50827;47.014;7.652;2023-07-31T02:07:54;15.40;99.90
3752;DHT22;50827;47.014;7.652;2023-07-31T02:10:21;15.40;99.90
3752;DHT22;50827;47.014;7.652;2023-07-31T02:12:48;15.40;99.90
3752;DHT22;50827;47.014;7.652;2023-07-31T02:15:14;15.40;99.90
3752;DHT22;50827;47.014;7.652;2023-07-31T02:17:41;15.30;99.90
3752;DHT22;50827;47.014;7.652;2023-07-31T02:20:08;15.30;99.90
3752;DHT22;50827;47.014;7.652;2023-07-31T02:22:35;15.40;99.90
3752;DHT22;50827;47.014;7.652;2023-07-31T02:25:02;15.30;99.90
3752;DHT22;50827;47.014;7.652;2023-07-31T02:27:28;15.30;99.90
3752;DHT22;50827;47.014;7.652;2023-07-31T02:29:55;15.30;99.90
3752;DHT22;50827;47.014;7.652;2023-07-31T02:32:22;15.20;99.90
3752;DHT22;50827;47.014;7.652;2023-07-31T02:34:48;15.10;99.90
3752;DHT22;50827;47.014;7.652;2023-07-31T02:37:15;15.10;99.90
3752;DHT22;50827;47.014;7.652;2023-07-31T02:39:42;15.10;99.90
3752;DHT22;50827;47.014;7.652;2023-07-31T02:42:09;15.00;99.90
3752;DHT22;50827;47.014;7.652;2023-07-31T02:44:35;15.00;99.90
3752;DHT22;50827;47.014;7.652;2023-07-31T02:47:02;15.00;99.90
3752;DHT22;50827;47.014;7.652;2023-07-31T02:49:29;15.00;99.90
3752;DHT22;50827;47.014;7.652;2023-07-31T02:51:56;14.90;99.90
3752;DHT22;50827;47.014;7.652;2023-07-31T02:54:23;14.90;99.90
3752;DHT22;50827;47.014;7.652;2023-07-31T02:56:49;14.90;99.90
3752;DHT22;50827;47.014;7.652;2023-07-31T02:59:17;14.90;99.90
3752;DHT22;50827;47.014;7.652;2023-07-31T03:01:44;14.80;99.90
3752;DHT22;50827;47.014;7.652;2023-07-31T03:04:11;14.80;99.90
3752;DHT22;50827;47.014;7.652;2023-07-31T03:06:38;14.70;99.90
3752;DHT22;50827;47.014;7.652;2023-07-31T03:09:05;14.70;99.90
3752;DHT22;50827;47.014;7.652;2023-07-31T03:11:31;14.70;99.90
3752;DHT22;50827;47.014;7.652;2023-07-31T03:13:58;14.70;99.90
3752;DHT22;50827;47.014;7.652;2023-07-31T03:16:25;14.70;99.90
3752;DHT22;50827;47.014;7.652;2023-07-31T03:18:52;14.60;99.90
3752;DHT22;50827;47.014;7.652;2023-07-31T03:21:18;14.60;99.90
3752;DHT22;50827;47.014;7.652;2023-07-31T03:23:45;14.60;99.90
3752;DHT22;50827;47.014;7.652;2023-07-31T03:26:12;14.60;99.90
3752;DHT22;50827;47.014;7.652;2023-07-31T03:28:39;14.60;99.90
3752;DHT22;50827;47.014;7.652;2023-07-31T03:31:05;14.50;99.90
3752;DHT22;50827;47.014;7.652;2023-07-31T03:33:32;14.50;99.90
3752;DHT22;50827;47.014;7.652;2023-07-31T03:35:59;14.60;99.90
3752;DHT22;50827;47.014;7.652;2023-07-31T03:38:26;14.50;99.90
3752;DHT22;50827;47.014;7.652;2023-07-31T03:40:52;14.50;99.90
3752;DHT22;50827;47.014;7.652;2023-07-31T03:43:19;14.50;99.90
3752;DHT22;50827;47.014;7.652;2023-07-31T03:45:46;14.50;99.90
3752;DHT22;50827;47.014;7.652;2023-07-31T03:48:14;14.60;99.90
3752;DHT22;50827;47.014;7.652;2023-07-31T03:50:40;14.60;99.90
3752;DHT22;50827;47.014;7.652;2023-07-31T03:53:07;14.70;99.90
3752;DHT22;50827;47.014;7.652;2023-07-31T03:55:34;14.70;99.90
3752;DHT22;50827;47.014;7.652;2023-07-31T03:58:00;14.60;99.90
3752;DHT22;50827;47.014;7.652;2023-07-31T04:00:27;14.60;99.90
3752;DHT22;50827;47.014;7.652;2023-07-31T04:02:54;14.50;99.90
3752;DHT22;50827;47.014;7.652;2023-07-31T04:05:21;14.50;99.90
3752;DHT22;50827;47.014;7.652;2023-07-31T04:07:47;14.50;99.90
3752;DHT22;50827;47.014;7.652;2023-07-31T04:10:14;14.40;99.90
3752;DHT22;50827;47.014;7.652;2023-07-31T04:12:41;14.40;99.90
3752;DHT22;50827;47.014;7.652;2023-07-31T04:15:08;14.40;99.90
3752;DHT22;50827;47.014;7.652;2023-07-31T04:17:34;14.40;99.90
3752;DHT22;50827;47.014;7.652;2023-07-31T04:20:01;14.40;99.90
3752;DHT22;50827;47.014;7.652;2023-07-31T04:22:28;14.40;99.90
3752;DHT22;50827;47.014;7.652;2023-07-31T04:24:55;14.40;99.90
3752;DHT22;50827;47.014;7.652;2023-07-31T04:27:22;14.40;99.90
3752;DHT22;50827;47.014;7.652;2023-07-31T04:29:48;14.40;99.90
3752;DHT22;50827;47.014;7.652;2023-07-31T04:32:15;14.50;99.90
3752;DHT22;50827;47.014;7.652;2023-07-31T04:34:43;14.50;99.90
3752;DHT22;50827;47.014;7.652;2023-07-31T04:37:10;14.60;99.90
3752;DHT22;50827;47.014;7.652;2023-07-31T04:39:37;14.60;99.90
3752;DHT22;50827;47.014;7.652;2023-07-31T04:42:03;14.60;99.90
3752;DHT22;50827;47.014;7.652;2023-07-31T04:44:30;14.70;99.90
3752;DHT22;50827;47.014;7.652;2023-07-31T04:46:57;14.60;99.90
3752;DHT22;50827;47.014;7.652;2023-07-31T04:49:24;14.70;99.90
3752;DHT22;50827;47.014;7.652;2023-07-31T04:51:50;14.70;99.90
3752;DHT22;50827;47.014;7.652;2023-07-31T04:54:17;14.70;99.90
3752;DHT22;50827;47.014;7.652;2023-07-31T04:56:44;14.80;99.90
3752;DHT22;50827;47.014;7.652;2023-07-31T04:59:11;14.80;99.90
3752;DHT22;50827;47.014;7.652;2023-07-31T05:01:37;14.80;99.90
3752;DHT22;50827;47.014;7.652;2023-07-31T05:04:04;14.80;99.90
3752;DHT22;50827;47.014;7.652;2023-07-31T05:06:31;14.80;99.90
3752;DHT22;50827;47.014;7.652;2023-07-31T05:08:57;14.80;99.90
3752;DHT22;50827;47.014;7.652;2023-07-31T05:11:24;14.90;99.90
3752;DHT22;50827;47.014;7.652;2023-07-31T05:13:51;14.90;99.90
3752;DHT22;50827;47.014;7.652;2023-07-31T05:16:17;14.90;99.90
3752;DHT22;50827;47.014;7.652;2023-07-31T05:18:44;14.90;99.90
3752;DHT22;50827;47.014;7.652;2023-07-31T05:21:11;14.90;99.90
3752;DHT22;50827;47.014;7.652;2023-07-31T05:23:38;14.90;99.90
3752;DHT22;50827;47.014;7.652;2023-07-31T05:26:05;15.00;99.90
3752;DHT22;50827;47.014;7.652;2023-07-31T05:28:35;14.90;99.90
3752;DHT22;50827;47.014;7.652;2023-07-31T05:31:05;14.90;99.90
3752;DHT22;50827;47.014;7.652;2023-07-31T05:33:33;14.90;99.90
3752;DHT22;50827;47.014;7.652;2023-07-31T05:36:00;15.00;99.90
3752;DHT22;50827;47.014;7.652;2023-07-31T05:38:26;15.00;99.90
3752;DHT22;50827;47.014;7.652;2023-07-31T05:40:53;15.20;99.90
3752;DHT22;50827;47.014;7.652;2023-07-31T05:43:20;15.20;99.90
3752;DHT22;50827;47.014;7.652;2023-07-31T05:45:47;15.20;99.90
3752;DHT22;50827;47.014;7.652;2023-07-31T05:48:14;15.30;99.90
3752;DHT22;50827;47.014;7.652;2023-07-31T05:50:40;15.20;99.90
3752;DHT22;50827;47.014;7.652;2023-07-31T05:53:07;15.30;99.90
3752;DHT22;50827;47.014;7.652;2023-07-31T05:55:34;15.40;99.90
3752;DHT22;50827;47.014;7.652;2023-07-31T05:58:01;15.40;99.90
3752;DHT22;50827;47.014;7.652;2023-07-31T06:00:28;15.50;99.90
3752;DHT22;50827;47.014;7.652;2023-07-31T06:02:55;15.50;99.90
3752;DHT22;50827;47.014;7.652;2023-07-31T06:05:22;15.60;99.90
3752;DHT22;50827;47.014;7.652;2023-07-31T06:07:48;15.60;99.90
3752;DHT22;50827;47.014;7.652;2023-07-31T06:10:15;15.60;99.90
3752;DHT22;50827;47.014;7.652;2023-07-31T06:12:42;15.60;99.90
3752;DHT22;50827;47.014;7.652;2023-07-31T06:15:09;15.60;99.90
3752;DHT22;50827;47.014;7.652;2023-07-31T06:17:36;15.60;99.90
3752;DHT22;50827;47.014;7.652;2023-07-31T06:20:03;15.70;99.90
3752;DHT22;50827;47.014;7.652;2023-07-31T06:22:31;15.70;99.90
3752;DHT22;50827;47.014;7.652;2023-07-31T06:24:59;15.80;99.90
3752;DHT22;50827;47.014;7.652;2023-07-31T06:27:25;15.80;99.90
3752;DHT22;50827;47.014;7.652;2023-07-31T06:29:52;15.80;99.90
3752;DHT22;50827;47.014;7.652;2023-07-31T06:32:19;15.90;99.90
3752;DHT22;50827;47.014;7.652;2023-07-31T06:34:45;16.00;99.90
3752;DHT22;50827;47.014;7.652;2023-07-31T06:37:12;16.20;99.90
3752;DHT22;50827;47.014;7.652;2023-07-31T06:39:39;16.30;99.90
3752;DHT22;50827;47.014;7.652;2023-07-31T06:42:06;16.40;99.90
3752;DHT22;50827;47.014;7.652;2023-07-31T06:44:33;16.50;99.90
3752;DHT22;50827;47.014;7.652;2023-07-31T06:47:00;16.60;99.90
3752;DHT22;50827;47.014;7.652;2023-07-31T06:49:27;16.70;99.90
3752;DHT22;50827;47.014;7.652;2023-07-31T06:51:53;16.80;99.90
3752;DHT22;50827;47.014;7.652;2023-07-31T06:54:20;16.90;99.90
3752;DHT22;50827;47.014;7.652;2023-07-31T06:56:47;17.00;99.90
3752;DHT22;50827;47.014;7.652;2023-07-31T06:59:14;17.10;99.90
3752;DHT22;50827;47.014;7.652;2023-07-31T07:01:40;17.10;99.90
3752;DHT22;50827;47.014;7.652;2023-07-31T07:04:07;17.20;99.90
3752;DHT22;50827;47.014;7.652;2023-07-31T07:06:34;17.20;99.90
3752;DHT22;50827;47.014;7.652;2023-07-31T07:09:01;17.30;99.90
3752;DHT22;50827;47.014;7.652;2023-07-31T07:11:30;17.30;99.90
3752;DHT22;50827;47.014;7.652;2023-07-31T07:13:57;17.40;99.90
3752;DHT22;50827;47.014;7.652;2023-07-31T07:16:24;17.40;99.90
3752;DHT22;50827;47.014;7.652;2023-07-31T07:18:50;17.50;99.90
3752;DHT22;50827;47.014;7.652;2023-07-31T07:21:30;17.60;99.90
3752;DHT22;50827;47.014;7.652;2023-07-31T07:23:56;17.70;99.90
3752;DHT22;50827;47.014;7.652;2023-07-31T07:26:23;17.70;99.90
3752;DHT22;50827;47.014;7.652;2023-07-31T07:28:50;17.80;99.90
3752;DHT22;50827;47.014;7.652;2023-07-31T07:31:16;17.80;99.90
3752;DHT22;50827;47.014;7.652;2023-07-31T07:33:43;17.90;99.90
3752;DHT22;50827;47.014;7.652;2023-07-31T07:36:10;18.00;99.90
3752;DHT22;50827;47.014;7.652;2023-07-31T07:38:39;18.10;99.90
3752;DHT22;50827;47.014;7.652;2023-07-31T07:41:05;18.30;99.90
3752;DHT22;50827;47.014;7.652;2023-07-31T07:43:32;18.40;99.90
3752;DHT22;50827;47.014;7.652;2023-07-31T07:45:59;18.40;99.90
3752;DHT22;50827;47.014;7.652;2023-07-31T07:48:26;18.40;99.90
3752;DHT22;50827;47.014;7.652;2023-07-31T07:50:53;18.40;99.90
3752;DHT22;50827;47.014;7.652;2023-07-31T07:53:19;18.50;99.90
3752;DHT22;50827;47.014;7.652;2023-07-31T07:55:46;18.60;99.90
3752;DHT22;50827;47.014;7.652;2023-07-31T07:58:15;18.60;99.90
3752;DHT22;50827;47.014;7.652;2023-07-31T08:00:42;18.80;99.90
3752;DHT22;50827;47.014;7.652;2023-07-31T08:03:14;18.80;99.90
3752;DHT22;50827;47.014;7.652;2023-07-31T08:05:41;18.90;99.90
3752;DHT22;50827;47.014;7.652;2023-07-31T08:08:08;18.90;99.90
3752;DHT22;50827;47.014;7.652;2023-07-31T08:10:35;19.00;99.90
3752;DHT22;50827;47.014;7.652;2023-07-31T08:13:02;19.00;99.90
3752;DHT22;50827;47.014;7.652;2023-07-31T08:15:28;19.20;99.90
3752;DHT22;50827;47.014;7.652;2023-07-31T08:17:55;19.20;99.90
3752;DHT22;50827;47.014;7.652;2023-07-31T08:20:22;19.20;99.90
3752;DHT22;50827;47.014;7.652;2023-07-31T08:22:48;19.30;99.90
3752;DHT22;50827;47.014;7.652;2023-07-31T08:25:15;19.30;99.90
3752;DHT22;50827;47.014;7.652;2023-07-31T08:27:45;19.40;99.90
3752;DHT22;50827;47.014;7.652;2023-07-31T08:30:12;19.50;99.90
3752;DHT22;50827;47.014;7.652;2023-07-31T08:32:39;19.60;99.90
3752;DHT22;50827;47.014;7.652;2023-07-31T08:35:06;19.60;99.90
3752;DHT22;50827;47.014;7.652;2023-07-31T08:37:32;19.80;99.90
3752;DHT22;50827;47.014;7.652;2023-07-31T08:39:59;19.80;99.90
3752;DHT22;50827;47.014;7.652;2023-07-31T08:42:26;19.90;99.90
3752;DHT22;50827;47.014;7.652;2023-07-31T08:44:56;20.00;99.90
3752;DHT22;50827;47.014;7.652;2023-07-31T08:47:24;20.00;99.90
3752;DHT22;50827;47.014;7.652;2023-07-31T08:49:51;20.10;99.90
3752;DHT22;50827;47.014;7.652;2023-07-31T08:52:19;20.10;99.90
3752;DHT22;50827;47.014;7.652;2023-07-31T08:54:45;20.20;99.90
3752;DHT22;50827;47.014;7.652;2023-07-31T08:57:12;20.30;99.90
3752;DHT22;50827;47.014;7.652;2023-07-31T08:59:40;20.30;99.90
3752;DHT22;50827;47.014;7.652;2023-07-31T09:02:08;20.30;99.90
3752;DHT22;50827;47.014;7.652;2023-07-31T09:04:35;20.40;99.90
3752;DHT22;50827;47.014;7.652;2023-07-31T09:07:03;20.40;99.90
3752;DHT22;50827;47.014;7.652;2023-07-31T09:09:31;20.50;99.90
3752;DHT22;50827;47.014;7.652;2023-07-31T09:11:58;20.40;99.90
3752;DHT22;50827;47.014;7.652;2023-07-31T09:14:26;20.40;99.90
3752;DHT22;50827;47.014;7.652;2023-07-31T09:16:55;20.40;99.90
3752;DHT22;50827;47.014;7.652;2023-07-31T09:19:40;20.50;99.90
3752;DHT22;50827;47.014;7.652;2023-07-31T09:22:07;20.40;99.90
3752;DHT22;50827;47.014;7.652;2023-07-31T09:24:34;20.60;99.90
3752;DHT22;50827;47.014;7.652;2023-07-31T09:27:01;20.60;99.90
3752;DHT22;50827;47.014;7.652;2023-07-31T09:29:29;20.80;99.90
3752;DHT22;50827;47.014;7.652;2023-07-31T09:31:56;20.90;99.90
3752;DHT22;50827;47.014;7.652;2023-07-31T09:34:38;20.90;99.90
3752;DHT22;50827;47.014;7.652;2023-07-31T09:37:07;21.00;99.90
3752;DHT22;50827;47.014;7.652;2023-07-31T09:39:46;21.10;99.90
3752;DHT22;50827;47.014;7.652;2023-07-31T09:42:13;21.10;99.90
3752;DHT22;50827;47.014;7.652;2023-07-31T09:44:40;21.00;99.90
3752;DHT22;50827;47.014;7.652;2023-07-31T09:47:21;21.00;99.90
3752;DHT22;50827;47.014;7.652;2023-07-31T09:49:50;21.10;99.90
3752;DHT22;50827;47.014;7.652;2023-07-31T09:52:19;21.10;99.90
3752;DHT22;50827;47.014;7.652;2023-07-31T09:54:46;21.20;99.90
3752;DHT22;50827;47.014;7.652;2023-07-31T09:57:13;21.30;99.90
3752;DHT22;50827;47.014;7.652;2023-07-31T09:59:43;21.30;99.90
3752;DHT22;50827;47.014;7.652;2023-07-31T10:02:15;21.30;99.90
3752;DHT22;50827;47.014;7.652;2023-07-31T10:04:43;21.40;99.90
3752;DHT22;50827;47.014;7.652;2023-07-31T10:07:13;21.40;99.90
3752;DHT22;50827;47.014;7.652;2023-07-31T10:09:41;21.50;99.90
3752;DHT22;50827;47.014;7.652;2023-07-31T10:12:11;21.50;99.90
3752;DHT22;50827;47.014;7.652;2023-07-31T10:14:39;21.50;99.90
3752;DHT22;50827;47.014;7.652;2023-07-31T10:17:08;21.50;99.90
3752;DHT22;50827;47.014;7.652;2023-07-31T10:19:36;21.60;99.90
3752;DHT22;50827;47.014;7.652;2023-07-31T10:22:03;21.60;99.90
3752;DHT22;50827;47.014;7.652;2023-07-31T10:24:31;21.60;99.90
3752;DHT22;50827;47.014;7.652;2023-07-31T10:27:00;21.70;99.90
3752;DHT22;50827;47.014;7.652;2023-07-31T10:29:28;21.70;99.90
3752;DHT22;50827;47.014;7.652;2023-07-31T10:31:57;21.80;99.90
3752;DHT22;50827;47.014;7.652;2023-07-31T10:34:24;21.80;99.90
3752;DHT22;50827;47.014;7.652;2023-07-31T10:37:28;21.90;99.90
3752;DHT22;50827;47.014;7.652;2023-07-31T10:40:19;22.00;99.90
3752;DHT22;50827;47.014;7.652;2023-07-31T10:42:54;22.00;99.90
3752;DHT22;50827;47.014;7.652;2023-07-31T10:45:25;22.00;99.90
3752;DHT22;50827;47.014;7.652;2023-07-31T10:50:28;22.00;99.90
3752;DHT22;50827;47.014;7.652;2023-07-31T10:52:56;22.10;99.90
3752;DHT22;50827;47.014;7.652;2023-07-31T10:55:32;22.10;99.90
3752;DHT22;50827;47.014;7.652;2023-07-31T10:58:11;22.20;99.90
3752;DHT22;50827;47.014;7.652;2023-07-31T11:00:42;22.20;99.90
3752;DHT22;50827;47.014;7.652;2023-07-31T11:03:12;22.30;99.90
3752;DHT22;50827;47.014;7.652;2023-07-31T11:08:21;22.40;99.90
3752;DHT22;50827;47.014;7.652;2023-07-31T11:13:52;22.50;99.90
3752;DHT22;50827;47.014;7.652;2023-07-31T11:16:21;22.50;99.90
3752;DHT22;50827;47.014;7.652;2023-07-31T11:18:49;22.50;99.90
3752;DHT22;50827;47.014;7.652;2023-07-31T11:21:18;22.60;99.90
3752;DHT22;50827;47.014;7.652;2023-07-31T11:23:46;22.70;99.90
3752;DHT22;50827;47.014;7.652;2023-07-31T11:26:14;22.70;99.90
3752;DHT22;50827;47.014;7.652;2023-07-31T11:28:41;22.70;99.90
3752;DHT22;50827;47.014;7.652;2023-07-31T11:31:10;22.70;99.90
3752;DHT22;50827;47.014;7.652;2023-07-31T11:33:37;22.70;99.90
3752;DHT22;50827;47.014;7.652;2023-07-31T11:36:04;22.80;99.90
3752;DHT22;50827;47.014;7.652;2023-07-31T11:38:33;22.80;99.90
3752;DHT22;50827;47.014;7.652;2023-07-31T11:41:04;22.90;99.90
3752;DHT22;50827;47.014;7.652;2023-07-31T11:43:33;23.00;99.90
3752;DHT22;50827;47.014;7.652;2023-07-31T11:46:01;23.10;99.90
3752;DHT22;50827;47.014;7.652;2023-07-31T11:48:35;23.10;99.90
3752;DHT22;50827;47.014;7.652;2023-07-31T11:51:10;23.20;99.90
3752;DHT22;50827;47.014;7.652;2023-07-31T11:53:51;23.20;99.90
3752;DHT22;50827;47.014;7.652;2023-07-31T11:56:21;23.20;99.90
3752;DHT22;50827;47.014;7.652;2023-07-31T11:58:55;23.20;99.90
3752;DHT22;50827;47.014;7.652;2023-07-31T12:01:23;23.20;99.90
3752;DHT22;50827;47.014;7.652;2023-07-31T12:03:51;23.20;99.90
3752;DHT22;50827;47.014;7.652;2023-07-31T12:06:18;23.30;99.90
3752;DHT22;50827;47.014;7.652;2023-07-31T12:08:48;23.40;99.90
3752;DHT22;50827;47.014;7.652;2023-07-31T12:11:15;23.40;99.90
3752;DHT22;50827;47.014;7.652;2023-07-31T12:13:44;23.30;99.90
3752;DHT22;50827;47.014;7.652;2023-07-31T12:16:11;23.40;99.90
3752;DHT22;50827;47.014;7.652;2023-07-31T12:18:38;23.40;99.90
3752;DHT22;50827;47.014;7.652;2023-07-31T12:21:07;23.40;99.90
3752;DHT22;50827;47.014;7.652;2023-07-31T12:23:36;23.50;99.90
3752;DHT22;50827;47.014;7.652;2023-07-31T12:26:11;23.60;99.90
3752;DHT22;50827;47.014;7.652;2023-07-31T12:31:11;23.60;99.90
3752;DHT22;50827;47.014;7.652;2023-07-31T12:33:39;23.70;99.90
3752;DHT22;50827;47.014;7.652;2023-07-31T12:36:14;23.80;99.90
3752;DHT22;50827;47.014;7.652;2023-07-31T12:38:42;23.80;99.90
3752;DHT22;50827;47.014;7.652;2023-07-31T12:41:09;23.90;99.90
3752;DHT22;50827;47.014;7.652;2023-07-31T12:43:39;24.00;99.90
3752;DHT22;50827;47.014;7.652;2023-07-31T12:46:06;24.10;99.90
3752;DHT22;50827;47.014;7.652;2023-07-31T12:48:39;24.20;99.90
3752;DHT22;50827;47.014;7.652;2023-07-31T12:51:06;24.40;99.90
3752;DHT22;50827;47.014;7.652;2023-07-31T12:53:34;24.50;99.90
3752;DHT22;50827;47.014;7.652;2023-07-31T12:56:01;24.50;99.90
3752;DHT22;50827;47.014;7.652;2023-07-31T12:58:28;24.60;99.90
3752;DHT22;50827;47.014;7.652;2023-07-31T13:00:55;24.80;99.90
3752;DHT22;50827;47.014;7.652;2023-07-31T13:03:22;24.70;99.90
3752;DHT22;50827;47.014;7.652;2023-07-31T13:05:48;24.80;99.90
3752;DHT22;50827;47.014;7.652;2023-07-31T13:08:15;24.70;99.90
3752;DHT22;50827;47.014;7.652;2023-07-31T13:10:44;24.80;99.90
3752;DHT22;50827;47.014;7.652;2023-07-31T13:13:10;24.90;99.90
3752;DHT22;50827;47.014;7.652;2023-07-31T13:15:37;25.00;99.90
3752;DHT22;50827;47.014;7.652;2023-07-31T13:18:04;25.10;99.90
3752;DHT22;50827;47.014;7.652;2023-07-31T13:20:31;25.20;99.90
3752;DHT22;50827;47.014;7.652;2023-07-31T13:22:57;25.20;99.90
3752;DHT22;50827;47.014;7.652;2023-07-31T13:25:24;25.30;99.90
3752;DHT22;50827;47.014;7.652;2023-07-31T13:27:51;25.30;99.90
3752;DHT22;50827;47.014;7.652;2023-07-31T13:30:18;25.30;99.90
3752;DHT22;50827;47.014;7.652;2023-07-31T13:32:44;25.20;99.90
3752;DHT22;50827;47.014;7.652;2023-07-31T13:35:11;25.30;99.90
3752;DHT22;50827;47.014;7.652;2023-07-31T13:37:38;25.40;99.90
3752;DHT22;50827;47.014;7.652;2023-07-31T13:40:06;25.40;99.90
3752;DHT22;50827;47.014;7.652;2023-07-31T13:42:33;25.50;99.90
3752;DHT22;50827;47.014;7.652;2023-07-31T13:45:00;25.50;99.90
3752;DHT22;50827;47.014;7.652;2023-07-31T13:47:30;25.50;99.90
3752;DHT22;50827;47.014;7.652;2023-07-31T13:49:57;25.40;99.90
3752;DHT22;50827;47.014;7.652;2023-07-31T13:52:24;25.50;99.90
3752;DHT22;50827;47.014;7.652;2023-07-31T13:54:51;25.50;99.90
3752;DHT22;50827;47.014;7.652;2023-07-31T13:57:18;25.50;99.90
3752;DHT22;50827;47.014;7.652;2023-07-31T13:59:44;25.60;99.90
3752;DHT22;50827;47.014;7.652;2023-07-31T14:02:11;25.60;99.90
3752;DHT22;50827;47.014;7.652;2023-07-31T14:04:38;25.70;99.90
3752;DHT22;50827;47.014;7.652;2023-07-31T14:07:04;25.70;99.90
3752;DHT22;50827;47.014;7.652;2023-07-31T14:09:31;25.70;99.90
3752;DHT22;50827;47.014;7.652;2023-07-31T14:11:58;25.80;99.90
3752;DHT22;50827;47.014;7.652;2023-07-31T14:14:25;25.80;99.90
3752;DHT22;50827;47.014;7.652;2023-07-31T14:16:51;25.80;99.90
3752;DHT22;50827;47.014;7.652;2023-07-31T14:19:18;25.90;99.90
3752;DHT22;50827;47.014;7.652;2023-07-31T14:21:45;25.90;99.90
3752;DHT22;50827;47.014;7.652;2023-07-31T14:24:30;25.90;99.90
3752;DHT22;50827;47.014;7.652;2023-07-31T14:26:57;26.00;99.90
3752;DHT22;50827;47.014;7.652;2023-07-31T14:29:24;26.00;99.90
3752;DHT22;50827;47.014;7.652;2023-07-31T14:31:50;26.00;99.90
3752;DHT22;50827;47.014;7.652;2023-07-31T14:34:17;26.10;99.90
3752;DHT22;50827;47.014;7.652;2023-07-31T14:36:44;26.10;99.90
3752;DHT22;50827;47.014;7.652;2023-07-31T14:39:12;26.20;99.90
3752;DHT22;50827;47.014;7.652;2023-07-31T14:41:39;26.30;99.90
3752;DHT22;50827;47.014;7.652;2023-07-31T14:44:06;26.30;99.90
3752;DHT22;50827;47.014;7.652;2023-07-31T14:46:32;26.40;99.90
3752;DHT22;50827;47.014;7.652;2023-07-31T14:48:59;26.50;99.90
3752;DHT22;50827;47.014;7.652;2023-07-31T14:51:26;26.50;99.90
3752;DHT22;50827;47.014;7.652;2023-07-31T14:53:52;26.40;99.90
3752;DHT22;50827;47.014;7.652;2023-07-31T14:56:19;26.50;99.90
3752;DHT22;50827;47.014;7.652;2023-07-31T14:58:46;26.50;99.90
3752;DHT22;50827;47.014;7.652;2023-07-31T15:01:12;26.50;99.90
3752;DHT22;50827;47.014;7.652;2023-07-31T15:03:39;26.60;99.90
3752;DHT22;50827;47.014;7.652;2023-07-31T15:06:06;26.60;99.90
3752;DHT22;50827;47.014;7.652;2023-07-31T15:08:34;26.60;99.90
3752;DHT22;50827;47.014;7.652;2023-07-31T15:11:01;26.60;99.90
3752;DHT22;50827;47.014;7.652;2023-07-31T15:13:27;26.60;99.90
3752;DHT22;50827;47.014;7.652;2023-07-31T15:15:54;26.60;99.90
3752;DHT22;50827;47.014;7.652;2023-07-31T15:18:22;26.70;99.90
3752;DHT22;50827;47.014;7.652;2023-07-31T15:20:49;26.70;99.90
3752;DHT22;50827;47.014;7.652;2023-07-31T15:23:15;26.70;99.90
3752;DHT22;50827;47.014;7.652;2023-07-31T15:25:42;26.70;99.90
3752;DHT22;50827;47.014;7.652;2023-07-31T15:28:09;26.70;99.90
3752;DHT22;50827;47.014;7.652;2023-07-31T15:30:36;26.70;99.90
3752;DHT22;50827;47.014;7.652;2023-07-31T15:33:04;26.70;99.90
3752;DHT22;50827;47.014;7.652;2023-07-31T15:35:30;26.70;99.90
3752;DHT22;50827;47.014;7.652;2023-07-31T15:37:57;26.80;99.90
3752;DHT22;50827;47.014;7.652;2023-07-31T15:40:24;26.80;99.90
3752;DHT22;50827;47.014;7.652;2023-07-31T15:42:50;26.90;99.90
3752;DHT22;50827;47.014;7.652;2023-07-31T15:45:17;26.90;99.90
3752;DHT22;50827;47.014;7.652;2023-07-31T15:47:44;26.80;99.90
3752;DHT22;50827;47.014;7.652;2023-07-31T15:50:11;26.90;99.90
3752;DHT22;50827;47.014;7.652;2023-07-31T15:52:37;26.90;99.90
3752;DHT22;50827;47.014;7.652;2023-07-31T15:55:04;26.90;99.90
3752;DHT22;50827;47.014;7.652;2023-07-31T15:57:31;26.90;99.90
3752;DHT22;50827;47.014;7.652;2023-07-31T15:59:58;26.80;99.90